Huvudsida
METAR-TAF:

METAR-TAF

Flygplatser :

Marsa Alams internationella flygplats

Marsa Alam, Egypten

latitud: 25-33-25N, longitud: 34-35-01E, höjd: 77 m

Aktuellt väderrapport

Denna rapport gjordes för 2 timmar och 42 minuter sedan, klockan 23:00 UTC
Vind 10 kt från väst
Temperatur 16°C
Fuktighet 45%
Tryck 1018 hPa
Sikt 10 km eller mer
Inga moln under 1 500 m eller inga cumulonimbus

METAR: HEMA 182300Z 27010KT CAVOK 16/04 Q1018 NOSIG

Tid: 03:42 (01:42 UTC)

Väderprognos

Denna rapport gjordes för 2 timmar och 42 minuter sedan, klockan 23:00 UTC
Prognos gäller från 19 kl. 00 UTC till 20 kl. 06 UTC
Vind 10 kt från väst/nordväst
Sikt 10 km eller mer
Inga moln under 1 500 m eller inga cumulonimbus

TAF: HEMA 182300Z 1900/2006 30010KT CAVOK

Aktuella väderrapporter och prognoser från 4000 flygplatser (METAR- och TAF-rapporter).

De tillgängliga stationerna syns som gula och röda prickar på kartan.

För musen över prickarna för att se namnen på stationerna.

Klicka sedan för att få väderrapporter och prognoser.

För att ändra kartan: Klicka på de gröna knapparna med ett svart kors på för att zooma in; den gröna knappen med ett streck på för att zooma ut; eller på de gröna pilarna för angränsande kartor.


METAR-TAF: